createdAt,value
2019-04-22T00:01:23.381Z,13.79
2019-04-22T00:03:55.213Z,13.74
2019-04-22T00:06:44.098Z,13.70
2019-04-22T00:09:17.425Z,13.65
2019-04-22T00:11:52.924Z,13.61
2019-04-22T00:14:13.103Z,13.59
2019-04-22T00:16:51.928Z,13.56
2019-04-22T00:21:55.983Z,13.53
2019-04-22T00:24:27.581Z,13.46
2019-04-22T00:27:00.287Z,13.46
2019-04-22T00:32:02.073Z,13.49
2019-04-22T00:34:40.882Z,13.49
2019-04-22T00:37:09.247Z,13.44
2019-04-22T00:39:46.550Z,13.40
2019-04-22T00:42:14.943Z,13.37
2019-04-22T00:44:51.881Z,13.34
2019-04-22T00:47:23.144Z,13.31
2019-04-22T00:52:21.776Z,13.21
2019-04-22T00:55:01.902Z,13.10
2019-04-22T00:57:27.866Z,12.97
2019-04-22T00:59:59.407Z,12.90
2019-04-22T01:02:27.709Z,12.84
2019-04-22T01:05:04.126Z,12.78
2019-04-22T01:07:30.476Z,12.71
2019-04-22T01:10:06.927Z,12.72
2019-04-22T01:12:31.911Z,12.68
2019-04-22T01:15:10.664Z,12.64
2019-04-22T01:17:40.154Z,12.59
2019-04-22T01:20:25.821Z,12.53
2019-04-22T01:22:38.957Z,12.46
2019-04-22T01:25:14.656Z,12.41
2019-04-22T01:27:41.812Z,12.35
2019-04-22T01:30:10.912Z,12.29
2019-04-22T01:32:35.037Z,12.22
2019-04-22T01:35:13.009Z,12.16
2019-04-22T01:37:52.524Z,12.13
2019-04-22T01:40:33.426Z,12.10
2019-04-22T01:43:03.819Z,12.06
2019-04-22T01:45:34.657Z,12.03
2019-04-22T01:48:02.907Z,12.02
2019-04-22T01:50:30.759Z,11.99
2019-04-22T01:53:10.624Z,11.93
2019-04-22T01:55:40.315Z,11.87
2019-04-22T01:58:08.758Z,11.80
2019-04-22T02:00:51.059Z,11.76
2019-04-22T02:03:17.851Z,11.73
2019-04-22T02:05:42.569Z,11.70
2019-04-22T02:08:25.506Z,11.69
2019-04-22T02:13:23.457Z,11.67
2019-04-22T02:15:58.691Z,11.66
2019-04-22T02:18:31.818Z,11.64
2019-04-22T02:21:03.279Z,11.65
2019-04-22T02:34:12.063Z,11.50
2019-04-22T02:36:30.160Z,11.43
2019-04-22T02:51:27.876Z,11.26
2019-04-22T03:01:47.421Z,11.10
2019-04-22T03:09:20.228Z,10.98
2019-04-22T03:17:11.333Z,10.79
2019-04-22T03:19:42.775Z,10.79
2019-04-22T03:21:57.768Z,10.78
2019-04-22T03:24:25.715Z,10.80
2019-04-22T03:26:59.615Z,10.81
2019-04-22T03:30:40.219Z,10.83
2019-04-22T03:35:30.424Z,10.82
2019-04-22T03:37:43.192Z,10.80
2019-04-22T03:42:48.514Z,10.73
2019-04-22T03:45:19.741Z,10.73
2019-04-22T03:47:41.489Z,10.67
2019-04-22T03:52:49.593Z,10.57
2019-04-22T03:55:37.416Z,10.49
2019-04-22T03:57:49.671Z,10.49
2019-04-22T04:03:01.060Z,10.46
2019-04-22T04:05:49.262Z,10.45
2019-04-22T04:15:53.090Z,10.36
2019-04-22T04:18:29.660Z,10.37
2019-04-22T04:20:56.248Z,10.37
2019-04-22T04:25:50.336Z,10.38
2019-04-22T04:30:48.649Z,10.36
2019-04-22T04:33:24.979Z,10.35
2019-04-22T04:38:32.124Z,10.31
2019-04-22T04:41:06.040Z,10.26
2019-04-22T04:51:15.990Z,10.32
2019-04-22T04:53:31.840Z,10.32
2019-04-22T04:56:30.383Z,10.32
2019-04-22T05:06:21.677Z,10.48
2019-04-22T05:13:59.210Z,10.71
2019-04-22T05:19:05.642Z,10.78
2019-04-22T05:21:42.181Z,10.81
2019-04-22T05:24:06.662Z,10.91
2019-04-22T05:26:34.231Z,10.91
2019-04-22T05:29:08.039Z,10.99
2019-04-22T05:34:05.536Z,11.19
2019-04-22T05:36:34.115Z,11.19
2019-04-22T05:39:08.293Z,11.32
2019-04-22T05:44:08.449Z,11.53
2019-04-22T05:46:47.561Z,11.53
2019-04-22T05:49:15.029Z,11.70
2019-04-22T05:51:56.771Z,11.81
2019-04-22T05:54:19.022Z,11.94
2019-04-22T05:56:55.100Z,12.11
2019-04-22T05:59:17.956Z,12.11
2019-04-22T06:01:57.498Z,12.17
2019-04-22T06:04:14.635Z,12.27
2019-04-22T06:06:46.849Z,12.39
2019-04-22T06:09:24.567Z,12.53
2019-04-22T06:11:52.006Z,12.68
2019-04-22T06:14:26.363Z,12.82
2019-04-22T06:19:31.536Z,13.09
2019-04-22T06:22:06.424Z,13.19
2019-04-22T06:24:49.414Z,13.31
2019-04-22T06:29:36.535Z,13.62
2019-04-22T06:32:23.922Z,13.73
2019-04-22T06:34:42.278Z,13.85
2019-04-22T06:37:17.491Z,14.00
2019-04-22T06:39:46.629Z,14.16
2019-04-22T06:42:21.915Z,14.31
2019-04-22T06:44:54.895Z,14.41
2019-04-22T06:47:41.968Z,14.54
2019-04-22T06:49:55.380Z,14.67
2019-04-22T06:52:28.153Z,14.87
2019-04-22T06:55:16.715Z,15.11
2019-04-22T06:57:34.757Z,15.21
2019-04-22T07:00:05.312Z,15.31
2019-04-22T07:02:47.130Z,15.41
2019-04-22T07:05:13.165Z,15.52
2019-04-22T07:07:49.805Z,15.61
2019-04-22T07:10:26.484Z,15.70
2019-04-22T07:13:01.459Z,15.76
2019-04-22T07:15:35.790Z,16.04
2019-04-22T07:17:50.547Z,16.04
2019-04-22T07:20:25.915Z,16.20
2019-04-22T07:22:51.360Z,16.21
2019-04-22T07:25:23.464Z,16.27
2019-04-22T07:28:01.104Z,16.40
2019-04-22T07:30:31.381Z,16.54
2019-04-22T07:35:48.909Z,16.85
2019-04-22T07:38:06.164Z,17.03
2019-04-22T07:40:40.043Z,17.21
2019-04-22T07:43:18.800Z,17.35
2019-04-22T07:45:44.033Z,17.47
2019-04-22T07:53:15.705Z,17.87
2019-04-22T07:55:46.777Z,17.97
2019-04-22T07:58:26.053Z,18.08
2019-04-22T08:00:55.947Z,18.26
2019-04-22T08:03:30.867Z,18.40
2019-04-22T08:06:05.450Z,18.69
2019-04-22T08:08:35.592Z,18.93
2019-04-22T08:11:11.699Z,19.11
2019-04-22T08:13:34.283Z,19.25
2019-04-22T08:16:10.101Z,19.48
2019-04-22T08:18:55.675Z,19.77
2019-04-22T08:21:13.583Z,20.10
2019-04-22T08:23:50.900Z,20.30
2019-04-22T08:26:24.560Z,20.24
2019-04-22T08:28:55.809Z,20.20
2019-04-22T08:31:31.601Z,20.25
2019-04-22T08:33:58.938Z,20.48
2019-04-22T08:39:04.828Z,20.59
2019-04-22T08:41:34.876Z,20.68
2019-04-22T08:49:16.063Z,20.92
2019-04-22T08:51:37.706Z,21.09
2019-04-22T08:56:43.971Z,21.37
2019-04-22T08:59:12.173Z,21.48
2019-04-22T09:01:40.755Z,21.30
2019-04-22T09:04:11.692Z,21.24
2019-04-22T09:07:10.497Z,21.31
2019-04-22T09:09:25.013Z,21.37
2019-04-22T09:11:54.837Z,21.37
2019-04-22T09:14:24.218Z,21.73
2019-04-22T09:16:48.212Z,21.96
2019-04-22T09:19:24.114Z,22.06
2019-04-22T09:22:03.481Z,22.05
2019-04-22T09:24:34.185Z,22.10
2019-04-22T09:27:07.778Z,22.25
2019-04-22T09:29:34.009Z,22.25
2019-04-22T09:32:11.338Z,22.49
2019-04-22T09:34:39.826Z,22.39
2019-04-22T09:37:21.062Z,22.39
2019-04-22T09:39:44.307Z,22.24
2019-04-22T09:42:09.125Z,22.33
2019-04-22T09:44:52.631Z,22.54
2019-04-22T09:47:12.842Z,22.63
2019-04-22T09:49:49.701Z,22.70
2019-04-22T09:52:15.055Z,22.87
2019-04-22T09:54:53.061Z,23.04
2019-04-22T09:57:21.211Z,22.99
2019-04-22T09:59:57.774Z,22.97
2019-04-22T10:02:25.009Z,22.98
2019-04-22T10:07:27.219Z,23.21
2019-04-22T10:10:03.298Z,23.34
2019-04-22T10:12:32.425Z,23.24
2019-04-22T10:15:14.991Z,23.13
2019-04-22T10:17:31.649Z,22.75
2019-04-22T10:20:05.573Z,22.85
2019-04-22T10:22:43.664Z,22.86
2019-04-22T10:25:04.898Z,22.80
2019-04-22T10:27:39.830Z,22.54
2019-04-22T10:30:08.808Z,22.55
2019-04-22T10:32:46.169Z,22.63
2019-04-22T10:35:08.206Z,22.66
2019-04-22T10:37:34.330Z,22.55
2019-04-22T10:40:08.241Z,22.49
2019-04-22T10:42:40.929Z,22.47
2019-04-22T10:45:12.386Z,22.46
2019-04-22T10:47:42.474Z,22.54
2019-04-22T10:50:14.464Z,22.76
2019-04-22T10:52:43.955Z,22.98
2019-04-22T10:55:13.886Z,23.03
2019-04-22T10:57:48.595Z,23.23
2019-04-22T11:00:19.592Z,23.15
2019-04-22T11:02:49.879Z,23.15
2019-04-22T11:05:22.002Z,23.26
2019-04-22T11:07:57.905Z,23.38
2019-04-22T11:10:36.874Z,23.48
2019-04-22T11:12:56.780Z,23.60
2019-04-22T11:15:26.671Z,23.52
2019-04-22T11:17:59.454Z,23.57
2019-04-22T11:20:29.324Z,23.67
2019-04-22T11:23:00.481Z,23.82
2019-04-22T11:25:31.947Z,24.09
2019-04-22T11:28:02.125Z,24.12
2019-04-22T11:30:34.377Z,24.07
2019-04-22T11:33:04.550Z,24.03
2019-04-22T11:35:34.893Z,24.14
2019-04-22T11:38:04.701Z,24.32
2019-04-22T11:40:41.738Z,24.18
2019-04-22T11:43:06.303Z,24.08
2019-04-22T11:45:37.370Z,24.06
2019-04-22T11:48:07.252Z,23.97
2019-04-22T11:50:42.153Z,23.89
2019-04-22T11:53:13.132Z,23.77
2019-04-22T11:55:42.838Z,23.81
2019-04-22T11:58:12.899Z,24.00
2019-04-22T12:00:43.132Z,24.11
2019-04-22T12:03:14.931Z,24.10
2019-04-22T12:05:45.848Z,23.99
2019-04-22T12:08:15.598Z,23.89
2019-04-22T12:10:51.626Z,23.79
2019-04-22T12:13:17.838Z,23.90
2019-04-22T12:15:49.108Z,24.09
2019-04-22T12:18:19.551Z,24.03
2019-04-22T12:20:50.682Z,23.76
2019-04-22T12:23:21.140Z,23.59
2019-04-22T12:26:00.929Z,23.47
2019-04-22T12:28:26.673Z,23.47
2019-04-22T12:30:57.396Z,23.51
2019-04-22T12:33:29.451Z,23.64
2019-04-22T12:36:00.357Z,23.68
2019-04-22T12:38:31.525Z,23.75
2019-04-22T12:41:05.935Z,24.14
2019-04-22T12:43:33.675Z,24.14
2019-04-22T12:46:05.849Z,23.99
2019-04-22T12:48:37.166Z,23.96
2019-04-22T12:51:07.119Z,24.01
2019-04-22T12:53:38.055Z,24.02
2019-04-22T12:56:12.701Z,23.92
2019-04-22T12:58:43.377Z,23.91
2019-04-22T13:01:13.103Z,23.95
2019-04-22T13:03:44.490Z,23.93
2019-04-22T13:06:14.340Z,23.92
2019-04-22T13:08:43.726Z,24.03
2019-04-22T13:11:17.963Z,24.08
2019-04-22T13:13:45.125Z,24.01
2019-04-22T13:16:15.439Z,23.94
2019-04-22T13:18:53.715Z,23.92
2019-04-22T13:21:18.562Z,23.98
2019-04-22T13:23:48.873Z,24.09
2019-04-22T13:26:18.980Z,24.13
2019-04-22T13:28:49.252Z,24.17
2019-04-22T13:31:24.432Z,24.17
2019-04-22T13:33:57.237Z,24.26
2019-04-22T13:36:27.700Z,24.40
2019-04-22T13:38:56.633Z,24.67
2019-04-22T13:41:33.909Z,24.50
2019-04-22T13:43:58.105Z,24.46
2019-04-22T13:46:31.384Z,24.35
2019-04-22T13:49:25.580Z,24.35
2019-04-22T13:56:55.099Z,23.99
2019-04-22T13:59:17.314Z,23.91
2019-04-22T14:01:38.528Z,23.90
2019-04-22T14:04:14.315Z,23.89
2019-04-22T14:06:44.876Z,23.92
2019-04-22T14:09:17.202Z,23.83
2019-04-22T14:11:52.859Z,23.75
2019-04-22T14:14:20.016Z,23.77
2019-04-22T14:16:51.364Z,23.93
2019-04-22T14:19:20.727Z,23.86
2019-04-22T14:21:51.583Z,23.90
2019-04-22T14:24:21.763Z,24.01
2019-04-22T14:27:08.765Z,24.03
2019-04-22T14:29:26.194Z,23.94
2019-04-22T14:32:05.456Z,23.95
2019-04-22T14:34:28.529Z,23.87
2019-04-22T14:36:59.425Z,23.79
2019-04-22T14:39:30.344Z,23.92
2019-04-22T14:42:21.679Z,24.07
2019-04-22T14:47:45.669Z,23.99
2019-04-22T14:49:58.921Z,23.74
2019-04-22T14:52:46.027Z,23.69
2019-04-22T14:54:51.635Z,23.68
2019-04-22T14:57:10.827Z,23.79
2019-04-22T14:59:41.696Z,23.80
2019-04-22T15:02:13.959Z,23.62
2019-04-22T15:04:45.907Z,23.51
2019-04-22T15:07:16.831Z,23.41
2019-04-22T15:09:48.046Z,23.28
2019-04-22T15:12:27.830Z,23.18
2019-04-22T15:14:51.162Z,23.35
2019-04-22T15:17:22.873Z,23.27
2019-04-22T15:19:54.306Z,23.31
2019-04-22T15:22:23.740Z,23.38
2019-04-22T15:24:54.474Z,23.40
2019-04-22T15:27:26.134Z,23.29
2019-04-22T15:29:54.946Z,23.21
2019-04-22T15:32:25.267Z,23.10
2019-04-22T15:34:55.520Z,23.14
2019-04-22T15:37:26.457Z,22.91
2019-04-22T15:39:57.207Z,22.80
2019-04-22T15:42:33.313Z,22.80
2019-04-22T15:45:00.053Z,22.78
2019-04-22T15:47:31.468Z,22.64
2019-04-22T15:50:01.119Z,22.63
2019-04-22T15:52:43.657Z,22.62
2019-04-22T15:55:04.938Z,22.63
2019-04-22T15:57:37.913Z,22.49
2019-04-22T16:00:22.801Z,22.48
2019-04-22T16:02:41.447Z,22.45
2019-04-22T16:05:10.922Z,22.45
2019-04-22T16:07:42.061Z,22.46
2019-04-22T16:10:15.428Z,22.37
2019-04-22T16:12:56.482Z,22.26
2019-04-22T16:15:16.604Z,22.24
2019-04-22T16:17:46.882Z,22.15
2019-04-22T16:20:17.398Z,22.02
2019-04-22T16:23:05.584Z,21.95
2019-04-22T16:25:49.623Z,21.94
2019-04-22T16:28:19.531Z,21.82
2019-04-22T16:30:49.127Z,21.68
2019-04-22T16:33:19.357Z,21.59
2019-04-22T16:35:49.091Z,21.56
2019-04-22T16:38:19.655Z,21.49
2019-04-22T16:40:50.435Z,21.36
2019-04-22T16:43:22.511Z,21.28
2019-04-22T16:45:51.988Z,21.23
2019-04-22T16:48:21.957Z,21.21
2019-04-22T16:50:55.016Z,21.15
2019-04-22T16:53:25.263Z,21.12
2019-04-22T16:55:54.971Z,21.06
2019-04-22T16:58:25.134Z,21.01
2019-04-22T17:00:56.516Z,20.98
2019-04-22T17:03:30.819Z,20.95
2019-04-22T17:06:11.643Z,20.88
2019-04-22T17:08:42.423Z,20.79
2019-04-22T17:11:11.981Z,20.77
2019-04-22T17:13:42.476Z,20.70
2019-04-22T17:16:15.670Z,20.56
2019-04-22T17:18:47.369Z,20.57
2019-04-22T17:21:17.573Z,20.49
2019-04-22T17:23:52.222Z,20.37
2019-04-22T17:26:24.337Z,20.29
2019-04-22T17:28:58.711Z,20.22
2019-04-22T17:31:28.955Z,20.20
2019-04-22T17:33:59.049Z,20.08
2019-04-22T17:36:29.796Z,20.03
2019-04-22T17:39:15.942Z,19.99
2019-04-22T17:41:50.614Z,19.92
2019-04-22T17:44:30.881Z,19.79
2019-04-22T17:47:01.356Z,19.74
2019-04-22T17:49:50.505Z,19.69
2019-04-22T17:52:21.841Z,19.62
2019-04-22T17:54:50.017Z,19.58
2019-04-22T17:57:24.092Z,19.50
2019-04-22T17:59:53.459Z,19.40
2019-04-22T18:02:25.190Z,19.35
2019-04-22T18:04:46.341Z,19.30
2019-04-22T18:10:23.943Z,19.15
2019-04-22T18:12:40.075Z,19.06
2019-04-22T18:15:20.942Z,18.97
2019-04-22T18:17:41.210Z,18.94
2019-04-22T18:20:04.624Z,18.87
2019-04-22T18:22:34.724Z,18.80
2019-04-22T18:25:04.957Z,18.75
2019-04-22T18:30:11.387Z,18.59
2019-04-22T18:32:43.812Z,18.51
2019-04-22T18:35:14.271Z,18.45
2019-04-22T18:37:50.022Z,18.43
2019-04-22T18:40:24.514Z,18.37
2019-04-22T18:43:00.202Z,18.24
2019-04-22T18:45:47.065Z,18.23
2019-04-22T18:47:55.524Z,18.20
2019-04-22T18:50:37.014Z,18.15
2019-04-22T18:53:13.095Z,18.09
2019-04-22T18:55:33.952Z,18.04
2019-04-22T18:58:11.995Z,18.00
2019-04-22T19:00:36.616Z,17.91
2019-04-22T19:03:16.000Z,17.86
2019-04-22T19:06:03.627Z,17.78
2019-04-22T19:08:31.518Z,17.75
2019-04-22T19:11:08.384Z,17.70
2019-04-22T19:16:29.083Z,17.58
2019-04-22T19:19:18.440Z,17.53
2019-04-22T19:21:12.460Z,17.45
2019-04-22T19:23:45.080Z,17.37
2019-04-22T19:26:20.606Z,17.29
2019-04-22T19:28:46.525Z,17.23
2019-04-22T19:31:19.365Z,17.18
2019-04-22T19:33:53.716Z,17.13
2019-04-22T19:36:23.779Z,17.07
2019-04-22T19:38:52.663Z,17.00
2019-04-22T19:41:35.155Z,16.99
2019-04-22T19:44:00.443Z,16.92
2019-04-22T19:46:28.116Z,16.87
2019-04-22T19:49:10.546Z,16.84
2019-04-22T19:51:50.876Z,16.88
2019-04-22T19:54:09.444Z,16.96
2019-04-22T19:56:27.825Z,17.02
2019-04-22T19:59:02.178Z,16.93
2019-04-22T20:01:47.494Z,16.93
2019-04-22T20:04:28.194Z,16.86
2019-04-22T20:06:53.954Z,16.77
2019-04-22T20:09:31.574Z,16.68
2019-04-22T20:12:01.140Z,16.61
2019-04-22T20:14:34.911Z,16.56
2019-04-22T20:16:59.864Z,16.53
2019-04-22T20:19:41.553Z,16.47
2019-04-22T20:22:02.994Z,16.41
2019-04-22T20:24:25.868Z,16.40
2019-04-22T20:27:13.641Z,16.35
2019-04-22T20:29:42.121Z,16.34
2019-04-22T20:32:10.835Z,16.29
2019-04-22T20:34:53.770Z,16.24
2019-04-22T20:37:22.305Z,16.17
2019-04-22T20:39:52.951Z,16.14
2019-04-22T20:42:43.619Z,16.08
2019-04-22T20:44:56.762Z,16.00
2019-04-22T20:47:23.749Z,15.95
2019-04-22T20:50:01.924Z,15.84
2019-04-22T20:52:45.156Z,15.74
2019-04-22T20:55:00.072Z,15.67
2019-04-22T20:57:34.817Z,15.62
2019-04-22T21:00:02.098Z,15.55
2019-04-22T21:02:31.284Z,15.52
2019-04-22T21:04:57.107Z,15.49
2019-04-22T21:07:31.367Z,15.46
2019-04-22T21:10:09.258Z,15.35
2019-04-22T21:12:34.041Z,15.29
2019-04-22T21:15:25.520Z,15.22
2019-04-22T21:17:45.904Z,15.17
2019-04-22T21:20:26.255Z,15.16
2019-04-22T21:22:55.195Z,15.10
2019-04-22T21:25:16.773Z,15.09
2019-04-22T21:27:59.804Z,15.04
2019-04-22T21:30:26.307Z,15.01
2019-04-22T21:32:58.185Z,15.01
2019-04-22T21:35:47.234Z,14.96
2019-04-22T21:38:06.117Z,14.92
2019-04-22T21:40:35.560Z,14.84
2019-04-22T21:43:10.700Z,14.81
2019-04-22T21:45:28.163Z,14.81
2019-04-22T21:57:48.912Z,14.56
2019-04-22T22:00:22.639Z,14.46
2019-04-22T22:03:17.047Z,14.36
2019-04-22T22:05:29.713Z,14.29
2019-04-22T22:08:23.125Z,14.24
2019-04-22T22:10:52.314Z,14.20
2019-04-22T22:13:44.498Z,14.17
2019-04-22T22:16:24.768Z,14.12
2019-04-22T22:19:05.508Z,14.09
2019-04-22T22:22:06.005Z,14.07
2019-04-22T22:24:43.877Z,14.06
2019-04-22T22:27:40.837Z,14.05
2019-04-22T22:33:10.937Z,13.93
2019-04-22T22:35:36.040Z,13.91
2019-04-22T22:40:58.375Z,13.88
2019-04-22T22:43:34.954Z,13.85
2019-04-22T22:46:29.238Z,13.82
2019-04-22T22:49:18.359Z,13.77
2019-04-22T22:52:03.117Z,13.74
2019-04-22T22:54:33.062Z,13.73
2019-04-22T22:57:17.939Z,13.72
2019-04-22T23:03:36.810Z,13.57
2019-04-22T23:05:55.388Z,13.57
2019-04-22T23:08:25.685Z,13.59
2019-04-22T23:11:07.104Z,13.52
2019-04-22T23:13:44.311Z,13.50
2019-04-22T23:16:10.326Z,13.49
2019-04-22T23:22:23.403Z,13.44
2019-04-22T23:25:35.138Z,13.41
2019-04-22T23:28:13.411Z,13.41
2019-04-22T23:31:14.341Z,13.40
2019-04-22T23:39:40.276Z,13.27
2019-04-22T23:42:27.352Z,13.27
2019-04-22T23:45:14.075Z,13.25
2019-04-22T23:47:47.435Z,13.22
2019-04-22T23:50:45.430Z,13.18
2019-04-22T23:53:47.442Z,13.16
2019-04-22T23:56:07.925Z,13.12
